Time;durP1;ratioP1;P1;durP2;ratioP2;P2;SDS_P1;SDS_P2;PMS_P1;PMS_P2;Temp;Humidity;BMP_temperature;BMP_pressure;BME280_temperature;BME280_humidity;BME280_pressure;Samples;Min_cycle;Max_cycle;Signal;HPM_P1;HPM_P2
2021/09/29 00:00:20;;;;;;;19.15;8.23;;;14.40;99.90;;;;;;5090409;28;20520;-54
2021/09/29 00:02:46;;;;;;;13.98;7.45;;;14.40;99.90;;;;;;5090569;28;20386;-54
2021/09/29 00:05:12;;;;;;;14.20;8.07;;;14.40;99.90;;;;;;5089666;28;20374;-54
2021/09/29 00:07:37;;;;;;;15.77;8.65;;;14.40;99.90;;;;;;5090449;28;20385;-54
2021/09/29 00:10:04;;;;;;;16.35;8.45;;;14.60;99.90;;;;;;5088269;28;20732;-54
2021/09/29 00:12:30;;;;;;;14.05;8.68;;;14.60;99.90;;;;;;5090174;28;20385;-54
2021/09/29 00:14:56;;;;;;;16.27;9.00;;;14.50;99.90;;;;;;5089352;28;20378;-55
2021/09/29 00:17:22;;;;;;;13.55;7.53;;;14.50;99.90;;;;;;5090417;28;20445;-54
2021/09/29 00:19:47;;;;;;;12.77;7.17;;;14.60;99.90;;;;;;5089962;28;20374;-54
2021/09/29 00:22:13;;;;;;;14.32;7.30;;;14.60;99.90;;;;;;5089148;28;20969;-56
2021/09/29 00:24:39;;;;;;;13.23;7.60;;;14.60;99.90;;;;;;5090220;28;20399;-55
2021/09/29 00:27:05;;;;;;;13.40;8.00;;;14.70;99.90;;;;;;5087909;28;20398;-56
2021/09/29 00:29:30;;;;;;;11.60;7.30;;;14.60;99.90;;;;;;5089915;28;20709;-55
2021/09/29 00:31:56;;;;;;;13.03;7.67;;;14.50;99.90;;;;;;5089134;28;20736;-55
2021/09/29 00:34:32;;;;;;;14.18;7.40;;;14.60;99.90;;;;;;5089959;28;20370;-56
2021/09/29 00:36:59;;;;;;;14.25;7.80;;;14.60;99.90;;;;;;5088678;28;20413;-56
2021/09/29 00:39:25;;;;;;;13.85;7.63;;;14.70;99.90;;;;;;5089734;28;20413;-56
2021/09/29 00:41:51;;;;;;;13.18;7.68;;;14.70;99.90;;;;;;5089278;28;20730;-56
2021/09/29 00:44:18;;;;;;;13.98;8.50;;;14.90;99.90;;;;;;5088366;28;20380;-56
2021/09/29 00:46:44;;;;;;;13.68;8.25;;;15.00;99.90;;;;;;5090054;28;20413;-56
2021/09/29 00:49:10;;;;;;;15.02;8.68;;;16.30;99.90;;;;;;5089170;28;20481;-56
2021/09/29 00:51:36;;;;;;;13.57;7.95;;;15.00;99.90;;;;;;5088359;28;20381;-56
2021/09/29 00:54:03;;;;;;;15.02;8.75;;;15.00;99.90;;;;;;5089216;28;20404;-56
2021/09/29 00:56:29;;;;;;;13.15;8.63;;;14.80;99.90;;;;;;5088912;28;20915;-56
2021/09/29 00:58:55;;;;;;;14.17;8.43;;;14.80;99.90;;;;;;5088644;28;20418;-57
2021/09/29 01:01:20;;;;;;;12.47;8.17;;;13.80;99.90;;;;;;5089657;28;20405;-56
2021/09/29 01:03:47;;;;;;;15.30;8.65;;;14.80;99.90;;;;;;5089106;28;20472;-56
2021/09/29 01:06:41;;;;;;;16.23;8.80;;;14.90;99.90;;;;;;5088765;28;20497;-56
2021/09/29 01:09:18;;;;;;;14.90;8.57;;;14.90;99.90;;;;;;5088553;28;20415;-56
2021/09/29 01:12:22;;;;;;;14.07;8.50;;;14.90;99.90;;;;;;5089273;28;20867;-56
2021/09/29 01:15:09;;;;;;;12.93;8.43;;;14.80;99.90;;;;;;5046563;28;20396;-56
2021/09/29 01:17:41;;;;;;;16.95;8.88;;;14.80;99.90;;;;;;5079975;28;20409;-56
2021/09/29 01:20:06;;;;;;;15.23;9.37;;;14.70;99.90;;;;;;5088648;28;20380;-56
2021/09/29 01:22:49;;;;;;;15.55;8.50;;;15.80;99.90;;;;;;5089338;28;20382;-57
2021/09/29 01:25:24;;;;;;;15.10;8.90;;;14.50;99.90;;;;;;5088106;28;20374;-56
2021/09/29 01:27:51;;;;;;;15.10;8.80;;;14.60;99.90;;;;;;5089369;28;20397;-55
2021/09/29 01:30:17;;;;;;;16.30;9.03;;;14.60;99.90;;;;;;5088718;28;20443;-55
2021/09/29 01:32:43;;;;;;;16.70;9.50;;;14.60;99.90;;;;;;5087719;28;20374;-55
2021/09/29 01:35:09;;;;;;;15.45;8.35;;;14.70;99.90;;;;;;5088242;28;20370;-55
2021/09/29 01:37:35;;;;;;;14.27;8.90;;;14.70;99.90;;;;;;5088803;28;20412;-54
2021/09/29 01:40:01;;;;;;;17.10;8.97;;;14.70;99.90;;;;;;5088259;28;20382;-54
2021/09/29 01:42:26;;;;;;;13.90;8.57;;;14.70;99.90;;;;;;5089253;28;20927;-54
2021/09/29 01:44:52;;;;;;;17.70;9.50;;;14.70;99.90;;;;;;5089125;28;20705;-55
2021/09/29 01:47:19;;;;;;;19.13;10.23;;;14.60;99.90;;;;;;5087012;28;20439;-54
2021/09/29 01:49:48;;;;;;;17.27;10.10;;;14.50;99.90;;;;;;5089254;28;20817;-55
2021/09/29 01:52:21;;;;;;;18.05;9.70;;;14.30;99.90;;;;;;5088723;28;20549;-54
2021/09/29 01:54:48;;;;;;;18.30;10.90;;;14.00;99.90;;;;;;5088866;28;20374;-55
2021/09/29 01:57:15;;;;;;;16.30;9.50;;;13.90;99.90;;;;;;5091719;28;20417;-54
2021/09/29 01:59:43;;;;;;;14.80;9.50;;;13.90;99.90;;;;;;5092743;28;20453;-55
2021/09/29 02:02:09;;;;;;;17.13;9.43;;;14.00;99.90;;;;;;5091731;28;20469;-54
2021/09/29 02:04:35;;;;;;;14.18;8.45;;;14.10;99.90;;;;;;5093150;28;20848;-54
2021/09/29 02:07:01;;;;;;;15.30;9.10;;;14.20;99.90;;;;;;5091654;28;20427;-55
2021/09/29 02:09:27;;;;;;;14.10;7.97;;;14.20;99.90;;;;;;5092984;28;20382;-54
2021/09/29 02:11:55;;;;;;;14.10;8.50;;;14.20;99.90;;;;;;5092706;28;20381;-54
2021/09/29 02:14:22;;;;;;;12.85;7.90;;;14.20;99.90;;;;;;5090722;28;20397;-54
2021/09/29 02:16:50;;;;;;;14.63;8.38;;;14.30;99.90;;;;;;5092523;28;20461;-54
2021/09/29 02:19:16;;;;;;;13.30;8.23;;;14.30;99.90;;;;;;5091442;28;20636;-54
2021/09/29 02:21:42;;;;;;;13.52;8.18;;;14.20;99.90;;;;;;5092549;28;20839;-54
2021/09/29 02:24:09;;;;;;;14.40;8.20;;;14.20;99.90;;;;;;5091342;28;20389;-54
2021/09/29 02:26:37;;;;;;;14.70;8.43;;;14.30;99.90;;;;;;5092268;28;20847;-55
2021/09/29 02:29:04;;;;;;;13.52;7.47;;;14.40;99.90;;;;;;5091629;28;20382;-55
2021/09/29 02:31:30;;;;;;;14.32;8.25;;;14.30;99.90;;;;;;5092012;28;20413;-55
2021/09/29 02:33:56;;;;;;;12.15;8.18;;;14.20;99.90;;;;;;5091522;28;20378;-55
2021/09/29 02:36:22;;;;;;;15.32;8.40;;;14.30;99.90;;;;;;5090293;28;20385;-55
2021/09/29 02:38:49;;;;;;;14.45;8.30;;;14.40;99.90;;;;;;5092036;28;20445;-55
2021/09/29 02:41:15;;;;;;;15.30;8.30;;;14.40;99.90;;;;;;5090898;28;20731;-55
2021/09/29 02:43:40;;;;;;;13.03;8.00;;;14.50;99.90;;;;;;5090573;28;20370;-55
2021/09/29 02:46:06;;;;;;;15.23;8.07;;;14.50;99.90;;;;;;5090821;28;20456;-55
2021/09/29 02:48:32;;;;;;;13.63;8.07;;;14.50;99.90;;;;;;5091867;28;20802;-55
2021/09/29 02:50:58;;;;;;;15.82;7.82;;;14.50;99.90;;;;;;5091409;28;20382;-55
2021/09/29 02:53:28;;;;;;;13.05;7.75;;;14.50;99.90;;;;;;5091734;28;20703;-55
2021/09/29 02:55:56;;;;;;;15.50;7.72;;;14.40;99.90;;;;;;5091190;28;20409;-55
2021/09/29 02:58:22;;;;;;;15.00;7.80;;;14.30;99.90;;;;;;5091327;28;20432;-55
2021/09/29 03:00:49;;;;;;;14.65;7.57;;;14.30;99.90;;;;;;5091693;28;20432;-55
2021/09/29 03:03:15;;;;;;;15.00;7.95;;;14.20;99.90;;;;;;5090883;28;20385;-55
2021/09/29 03:05:40;;;;;;;14.30;7.30;;;14.20;99.90;;;;;;5091575;28;20463;-55
2021/09/29 03:08:06;;;;;;;12.30;7.70;;;14.20;99.90;;;;;;5090087;28;20757;-55
2021/09/29 03:10:32;;;;;;;15.80;8.23;;;14.10;99.90;;;;;;5085950;28;20762;-55
2021/09/29 03:12:57;;;;;;;13.38;7.70;;;14.10;99.90;;;;;;5075038;28;20389;-55
2021/09/29 03:15:23;;;;;;;16.60;9.10;;;13.90;99.90;;;;;;5079405;28;20734;-55
2021/09/29 03:17:49;;;;;;;15.43;8.70;;;13.90;99.90;;;;;;5070823;28;20729;-54
2021/09/29 03:20:14;;;;;;;15.70;8.98;;;15.80;99.90;;;;;;5070144;28;20388;-54
2021/09/29 03:22:40;;;;;;;18.27;8.57;;;13.70;99.90;;;;;;5070696;28;20383;-55
2021/09/29 03:25:06;;;;;;;13.70;8.13;;;13.60;99.90;;;;;;5069422;28;20382;-53
2021/09/29 03:27:32;;;;;;;14.77;8.33;;;13.40;99.90;;;;;;5070625;28;20478;-53
2021/09/29 03:29:57;;;;;;;17.73;9.05;;;13.30;99.90;;;;;;5077032;28;20386;-55
2021/09/29 03:32:23;;;;;;;15.70;8.50;;;13.20;99.90;;;;;;5090196;28;20898;-55
2021/09/29 03:34:48;;;;;;;14.40;8.37;;;13.30;99.90;;;;;;5090717;28;20378;-55
2021/09/29 03:37:14;;;;;;;15.27;8.27;;;13.40;99.90;;;;;;5089648;28;20495;-55
2021/09/29 03:39:39;;;;;;;15.00;8.40;;;13.30;99.90;;;;;;5090301;28;20923;-55
2021/09/29 03:42:05;;;;;;;13.93;8.50;;;13.30;99.90;;;;;;5089758;28;20457;-55
2021/09/29 03:44:31;;;;;;;16.95;8.13;;;13.30;99.90;;;;;;5090743;28;20374;-55
2021/09/29 03:46:57;;;;;;;15.13;8.47;;;13.30;99.90;;;;;;5090401;28;20465;-55
2021/09/29 03:49:22;;;;;;;18.10;9.20;;;13.30;99.90;;;;;;5089848;28;20851;-55
2021/09/29 03:51:48;;;;;;;16.57;9.37;;;13.20;99.90;;;;;;5090404;28;20393;-55
2021/09/29 03:54:13;;;;;;;15.50;8.52;;;13.20;99.90;;;;;;5089600;28;20742;-55
2021/09/29 03:56:42;;;;;;;16.13;9.10;;;13.10;99.90;;;;;;5089543;28;20763;-55
2021/09/29 03:59:08;;;;;;;18.90;9.43;;;13.10;99.90;;;;;;5089364;28;20401;-55
2021/09/29 04:01:33;;;;;;;15.48;8.35;;;13.10;99.90;;;;;;5082990;28;20386;-55
2021/09/29 04:03:59;;;;;;;15.13;9.00;;;13.10;99.90;;;;;;5078774;28;20465;-55
2021/09/29 04:06:24;;;;;;;15.37;8.90;;;13.00;99.90;;;;;;5069783;28;20382;-55
2021/09/29 04:08:50;;;;;;;15.55;9.25;;;13.10;99.90;;;;;;5069911;28;20415;-55
2021/09/29 04:11:16;;;;;;;16.20;8.90;;;13.10;99.90;;;;;;5068988;28;20442;-53
2021/09/29 04:13:41;;;;;;;15.82;8.48;;;13.00;99.90;;;;;;5069939;28;20384;-53
2021/09/29 04:16:07;;;;;;;16.17;9.80;;;13.00;99.90;;;;;;5101906;28;20387;-55
2021/09/29 04:18:33;;;;;;;13.25;8.00;;;13.00;99.90;;;;;;5069153;28;21004;-53
2021/09/29 04:20:58;;;;;;;15.97;8.80;;;13.10;99.90;;;;;;5069548;28;20383;-56
2021/09/29 04:23:25;;;;;;;14.52;9.40;;;13.20;99.90;;;;;;5091591;28;20773;-53
2021/09/29 04:25:52;;;;;;;15.20;8.45;;;13.30;99.90;;;;;;5088249;28;20429;-54
2021/09/29 04:28:18;;;;;;;14.13;8.00;;;13.20;99.90;;;;;;5081556;28;20553;-53
2021/09/29 04:30:44;;;;;;;14.48;8.65;;;13.30;99.90;;;;;;5075985;28;20407;-54
2021/09/29 04:33:10;;;;;;;14.20;7.63;;;13.40;99.90;;;;;;5092624;28;20828;-54
2021/09/29 04:35:38;;;;;;;13.13;7.68;;;13.40;99.90;;;;;;5106185;28;20757;-54
2021/09/29 04:38:04;;;;;;;13.43;7.80;;;13.40;99.90;;;;;;5109364;28;20409;-54
2021/09/29 04:40:30;;;;;;;15.70;8.02;;;13.50;99.90;;;;;;5090085;27;20396;-54
2021/09/29 04:42:55;;;;;;;15.13;7.35;;;13.60;99.90;;;;;;5090103;28;20405;-54
2021/09/29 04:45:21;;;;;;;13.33;7.80;;;13.60;99.90;;;;;;5088383;28;20439;-54
2021/09/29 04:47:47;;;;;;;14.35;8.20;;;13.60;99.90;;;;;;5076723;28;20875;-54
2021/09/29 04:50:12;;;;;;;15.23;8.00;;;13.60;99.90;;;;;;5085126;28;20382;-54
2021/09/29 04:52:38;;;;;;;12.57;7.63;;;13.60;99.90;;;;;;5089935;28;20374;-54
2021/09/29 04:55:04;;;;;;;12.57;7.63;;;13.50;99.90;;;;;;5088809;28;20469;-54
2021/09/29 04:57:31;;;;;;;13.73;7.70;;;13.50;99.90;;;;;;5073253;28;20427;-54
2021/09/29 04:59:58;;;;;;;14.45;8.00;;;13.40;99.90;;;;;;5075212;28;20777;-54
2021/09/29 05:02:23;;;;;;;12.45;7.22;;;13.40;99.90;;;;;;5072345;28;20499;-54
2021/09/29 05:04:49;;;;;;;14.43;7.40;;;13.30;99.90;;;;;;5071355;28;20479;-54
2021/09/29 05:07:17;;;;;;;11.97;7.00;;;13.30;99.90;;;;;;5085073;28;20412;-54
2021/09/29 05:09:45;;;;;;;14.63;7.03;;;13.20;99.90;;;;;;5078688;28;20405;-54
2021/09/29 05:12:21;;;;;;;14.80;7.90;;;13.10;99.90;;;;;;5069386;28;20823;-54
2021/09/29 05:14:47;;;;;;;13.50;7.97;;;13.20;99.90;;;;;;5076149;28;20923;-54
2021/09/29 05:17:13;;;;;;;15.52;8.20;;;13.00;99.90;;;;;;5079362;28;20468;-54
2021/09/29 05:19:38;;;;;;;15.70;8.23;;;13.00;99.90;;;;;;5084316;28;20404;-54
2021/09/29 05:22:06;;;;;;;14.20;7.90;;;12.90;99.90;;;;;;5082076;28;20390;-54
2021/09/29 05:24:31;;;;;;;13.05;7.68;;;12.80;99.90;;;;;;5080740;28;20394;-54
2021/09/29 05:26:57;;;;;;;14.10;8.50;;;12.80;99.90;;;;;;5081103;28;20417;-54
2021/09/29 05:29:23;;;;;;;16.20;8.63;;;12.70;99.90;;;;;;5078620;28;20412;-53
2021/09/29 05:31:48;;;;;;;15.20;8.23;;;12.60;99.90;;;;;;5084562;28;20402;-54
2021/09/29 05:34:14;;;;;;;14.30;9.00;;;12.60;99.90;;;;;;5087750;28;20756;-54
2021/09/29 05:36:41;;;;;;;15.43;8.60;;;12.50;99.90;;;;;;5085516;28;20401;-51
2021/09/29 05:39:08;;;;;;;16.25;8.57;;;12.50;99.90;;;;;;5084646;28;20467;-53
2021/09/29 05:41:34;;;;;;;14.30;8.60;;;12.40;99.90;;;;;;5081266;28;20403;-53
2021/09/29 05:43:59;;;;;;;13.07;8.10;;;12.40;99.90;;;;;;5080745;28;20389;-54
2021/09/29 05:46:25;;;;;;;13.10;7.90;;;12.40;99.90;;;;;;5092645;28;20370;-52
2021/09/29 05:48:51;;;;;;;14.53;7.70;;;12.50;99.90;;;;;;5078939;28;20410;-53
2021/09/29 05:51:17;;;;;;;10.93;7.30;;;12.50;99.90;;;;;;5091946;28;20394;-53
2021/09/29 05:53:43;;;;;;;12.43;7.00;;;12.60;99.90;;;;;;5092119;28;20890;-53
2021/09/29 05:56:09;;;;;;;13.20;6.50;;;12.90;99.90;;;;;;5097384;28;20522;-54
2021/09/29 05:58:35;;;;;;;9.63;5.60;;;13.60;99.90;;;;;;5098439;28;21130;-55
2021/09/29 06:01:01;;;;;;;12.70;6.50;;;14.20;99.90;;;;;;5091776;28;20413;-57
2021/09/29 06:03:27;;;;;;;10.23;6.67;;;14.80;99.90;;;;;;5092387;28;20390;-55
2021/09/29 06:05:53;;;;;;;10.68;6.05;;;15.40;99.90;;;;;;5088994;28;20431;-55
2021/09/29 06:08:18;;;;;;;9.73;5.53;;;16.40;99.90;;;;;;5090523;28;20394;-55
2021/09/29 06:10:44;;;;;;;10.23;5.20;;;17.50;99.90;;;;;;5092553;28;20389;-55
2021/09/29 06:13:10;;;;;;;11.32;5.00;;;18.30;99.90;;;;;;5091379;28;20680;-55
2021/09/29 06:15:36;;;;;;;8.77;4.60;;;19.00;99.90;;;;;;5091742;28;20421;-55
2021/09/29 06:18:03;;;;;;;7.97;3.90;;;19.80;99.90;;;;;;5091105;28;20429;-55
2021/09/29 06:20:32;;;;;;;9.80;4.70;;;20.20;99.90;;;;;;5090888;28;20813;-55
2021/09/29 06:22:58;;;;;;;7.50;3.85;;;20.00;99.90;;;;;;5088065;28;20892;-55
2021/09/29 06:25:25;;;;;;;10.40;4.55;;;20.20;99.90;;;;;;5070990;28;20415;-55
2021/09/29 06:27:51;;;;;;;8.30;4.70;;;19.80;99.90;;;;;;5071520;28;20729;-55
2021/09/29 06:30:17;;;;;;;8.87;4.33;;;19.10;99.90;;;;;;5076685;28;20465;-55
2021/09/29 06:32:43;;;;;;;8.70;4.30;;;19.10;99.90;;;;;;5091802;28;20913;-55
2021/09/29 06:35:10;;;;;;;8.50;4.17;;;19.80;99.90;;;;;;5090951;28;20382;-55
2021/09/29 06:37:39;;;;;;;8.60;4.20;;;19.70;99.90;;;;;;5091673;28;20401;-55
2021/09/29 06:40:16;;;;;;;7.95;4.30;;;18.70;99.90;;;;;;5090496;28;20816;-55
2021/09/29 06:42:43;;;;;;;7.10;3.77;;;17.90;99.90;;;;;;5090991;28;20386;-55
2021/09/29 06:45:10;;;;;;;9.90;4.17;;;17.60;99.90;;;;;;5090956;28;20906;-55
2021/09/29 06:47:39;;;;;;;9.33;3.97;;;17.60;99.90;;;;;;5091483;28;20385;-55
2021/09/29 06:50:08;;;;;;;8.30;3.90;;;18.60;99.90;;;;;;5090753;28;20465;-55
2021/09/29 06:52:34;;;;;;;8.77;3.80;;;19.60;99.90;;;;;;5091346;28;20385;-55
2021/09/29 06:54:59;;;;;;;13.90;4.30;;;20.40;99.90;;;;;;5091294;28;20871;-55
2021/09/29 06:57:25;;;;;;;8.57;3.55;;;20.80;99.90;;;;;;5090060;28;20440;-55
2021/09/29 06:59:51;;;;;;;8.05;3.60;;;21.20;99.90;;;;;;5091464;28;20390;-56
2021/09/29 07:02:17;;;;;;;8.77;3.77;;;21.70;99.90;;;;;;5090340;28;20477;-56
2021/09/29 07:04:42;;;;;;;8.97;4.00;;;21.90;99.90;;;;;;5091395;28;20868;-55
2021/09/29 07:07:08;;;;;;;8.27;3.60;;;21.40;99.90;;;;;;5090782;28;20801;-56
2021/09/29 07:09:34;;;;;;;8.07;4.07;;;20.70;99.90;;;;;;5090553;28;20554;-55
2021/09/29 07:11:59;;;;;;;10.60;3.87;;;20.40;99.90;;;;;;5091084;28;20378;-55
2021/09/29 07:14:26;;;;;;;7.03;3.30;;;20.00;99.90;;;;;;5090675;28;20389;-55
2021/09/29 07:16:52;;;;;;;9.20;3.70;;;18.90;99.90;;;;;;5090546;28;20382;-55
2021/09/29 07:19:18;;;;;;;8.97;3.80;;;18.00;99.90;;;;;;5090407;28;20389;-55
2021/09/29 07:21:44;;;;;;;10.27;3.10;;;18.00;99.90;;;;;;5090641;28;20386;-55
2021/09/29 07:24:09;;;;;;;7.70;3.03;;;18.90;99.90;;;;;;5089836;28;20413;-56
2021/09/29 07:26:35;;;;;;;7.50;2.87;;;20.40;99.90;;;;;;5090399;28;20505;-56
2021/09/29 07:29:02;;;;;;;5.75;2.90;;;21.30;99.90;;;;;;5091250;28;20412;-56
2021/09/29 07:31:29;;;;;;;8.50;2.90;;;21.30;99.90;;;;;;5090703;28;20382;-56
2021/09/29 07:33:54;;;;;;;6.63;2.70;;;21.80;99.90;;;;;;5090944;28;20374;-56
2021/09/29 07:36:20;;;;;;;8.23;2.80;;;21.90;99.90;;;;;;5090106;28;20953;-56
2021/09/29 07:38:46;;;;;;;6.25;2.60;;;22.30;99.90;;;;;;5090564;28;20459;-56
2021/09/29 07:41:11;;;;;;;11.10;3.30;;;22.60;99.90;;;;;;5089661;28;20374;-57
2021/09/29 07:43:37;;;;;;;8.50;2.60;;;23.70;99.20;;;;;;5090705;28;20443;-56
2021/09/29 07:46:04;;;;;;;8.48;3.10;;;24.20;98.00;;;;;;5088510;28;20477;-56
2021/09/29 07:48:30;;;;;;;6.93;2.92;;;24.50;96.30;;;;;;5090250;28;20476;-56
2021/09/29 07:50:56;;;;;;;7.23;2.70;;;23.40;96.70;;;;;;5090326;28;20468;-56
2021/09/29 07:53:24;;;;;;;8.98;2.90;;;21.60;99.00;;;;;;5089738;28;20447;-56
2021/09/29 07:55:53;;;;;;;7.40;2.67;;;20.30;99.90;;;;;;5089604;28;20414;-56
2021/09/29 07:58:19;;;;;;;6.35;2.83;;;19.80;99.90;;;;;;5089367;28;20405;-56
2021/09/29 08:00:44;;;;;;;6.72;2.70;;;19.60;99.90;;;;;;5088564;28;20386;-56
2021/09/29 08:03:10;;;;;;;6.50;2.40;;;19.10;99.90;;;;;;5089159;28;20388;-56
2021/09/29 08:05:36;;;;;;;7.07;2.40;;;19.80;99.90;;;;;;5090088;28;20804;-56
2021/09/29 08:08:02;;;;;;;7.53;2.50;;;21.10;99.90;;;;;;5089926;28;20388;-56
2021/09/29 08:10:27;;;;;;;6.32;2.13;;;21.80;99.90;;;;;;5089586;28;20455;-56
2021/09/29 08:12:53;;;;;;;7.13;2.50;;;22.50;99.10;;;;;;5090124;28;20410;-56
2021/09/29 08:15:19;;;;;;;7.93;2.40;;;22.40;98.00;;;;;;5088957;28;20427;-56
2021/09/29 08:17:46;;;;;;;5.07;2.20;;;22.20;98.60;;;;;;5089754;28;20402;-57
2021/09/29 08:20:16;;;;;;;6.88;2.20;;;23.60;97.10;;;;;;5089269;28;20374;-55
2021/09/29 08:22:44;;;;;;;6.03;2.90;;;24.80;93.70;;;;;;5089444;28;20382;-56
2021/09/29 08:43:48;;;;;;;8.35;3.80;;;25.30;87.70;;;;;;5089573;28;20393;-58
2021/09/29 08:46:24;;;;;;;6.73;3.70;;;26.30;82.30;;;;;;5088828;28;20381;-56
2021/09/29 08:54:11;;;;;;;7.10;4.70;;;26.80;78.70;;;;;;5089051;28;20473;-57
2021/09/29 09:18:16;;;;;;;5.10;2.70;;;24.40;78.60;;;;;;5108246;28;20404;-57
2021/09/29 09:20:48;;;;;;;5.95;3.30;;;24.20;80.60;;;;;;5109579;28;20441;-56
2021/09/29 09:23:14;;;;;;;5.90;3.60;;;24.30;79.60;;;;;;5107077;28;20514;-56
2021/09/29 09:25:42;;;;;;;6.10;3.00;;;24.10;78.00;;;;;;5109214;28;20511;-57
2021/09/29 09:28:12;;;;;;;6.68;2.90;;;23.60;79.70;;;;;;5107161;28;20391;-57
2021/09/29 09:30:39;;;;;;;6.63;2.92;;;24.30;77.90;;;;;;5109461;28;20846;-57
2021/09/29 09:33:05;;;;;;;5.60;3.40;;;25.70;75.60;;;;;;5107859;28;20368;-56
2021/09/29 09:35:43;;;;;;;7.07;3.00;;;26.10;72.40;;;;;;5108810;28;20380;-56
2021/09/29 09:38:20;;;;;;;5.80;2.88;;;24.30;76.50;;;;;;5108299;28;20753;-57
2021/09/29 09:40:52;;;;;;;5.20;2.65;;;23.30;79.60;;;;;;5108284;28;20908;-57
2021/09/29 09:43:20;;;;;;;5.93;1.70;;;22.20;82.80;;;;;;5108705;28;20426;-57
2021/09/29 09:45:48;;;;;;;5.40;2.63;;;21.80;86.40;;;;;;5109457;28;20372;-57
2021/09/29 09:48:26;;;;;;;5.30;2.38;;;21.40;84.80;;;;;;5108391;28;20384;-57
2021/09/29 09:51:15;;;;;;;6.90;1.60;;;20.90;87.70;;;;;;5109351;28;20376;-54
2021/09/29 09:53:52;;;;;;;7.50;1.40;;;20.50;90.40;;;;;;5109081;28;20880;-56
2021/09/29 09:56:21;;;;;;;5.30;1.80;;;20.30;90.40;;;;;;5108266;28;20407;-55
2021/09/29 09:58:50;;;;;;;6.70;2.22;;;20.10;91.70;;;;;;5090942;28;20413;-55
2021/09/29 10:01:20;;;;;;;5.53;1.65;;;20.00;92.50;;;;;;5088448;28;20377;-55
2021/09/29 10:03:47;;;;;;;6.43;1.67;;;20.00;93.10;;;;;;5088884;28;20370;-55
2021/09/29 10:06:14;;;;;;;8.18;1.90;;;20.00;92.90;;;;;;5086631;28;20378;-56
2021/09/29 10:08:49;;;;;;;6.80;1.70;;;20.10;94.30;;;;;;5089823;28;20788;-55
2021/09/29 10:11:25;;;;;;;8.05;2.40;;;20.50;93.10;;;;;;5108167;28;20845;-57
2021/09/29 10:27:58;;;;;;;6.60;1.40;;;22.20;84.80;;;;;;5112483;28;20395;-57
2021/09/29 10:33:41;;;;;;;4.93;1.20;;;21.10;86.00;;;;;;5089531;28;20756;-57
2021/09/29 10:36:40;;;;;;;5.60;1.30;;;20.70;88.20;;;;;;5097124;28;20485;-57
2021/09/29 10:45:11;;;;;;;5.70;1.20;;;20.30;90.50;;;;;;5111688;28;20673;-57
2021/09/29 11:06:41;;;;;;;5.70;1.10;;;20.00;93.60;;;;;;5090780;28;20382;-55
2021/09/29 11:09:33;;;;;;;7.35;1.27;;;19.90;93.80;;;;;;5098417;28;20380;-56
2021/09/29 11:27:25;;;;;;;6.35;1.40;;;21.30;91.80;;;;;;5110615;28;20379;-56
2021/09/29 11:29:18;;;;;;;12.55;1.00;;;21.80;89.80;;;;;;5110076;28;20388;-57
2021/09/29 11:31:28;;;;;;;5.10;0.80;;;21.60;88.60;;;;;;5107110;28;20377;-57
2021/09/29 11:36:47;;;;;;;4.60;0.90;;;21.70;87.50;;;;;;5110423;27;20399;-56
2021/09/29 12:15:07;;;;;;;4.20;1.00;;;21.70;90.30;;;;;;5110281;28;20388;-57
2021/09/29 12:17:39;;;;;;;4.57;0.85;;;21.90;88.50;;;;;;5109984;28;20886;-57
2021/09/29 12:20:15;;;;;;;4.23;0.90;;;20.30;85.50;;;;;;5110400;28;20376;-56
2021/09/29 12:22:45;;;;;;;4.93;0.80;;;21.40;88.80;;;;;;5110423;28;20861;-56
2021/09/29 12:25:15;;;;;;;3.80;0.70;;;21.30;89.70;;;;;;5109356;28;20400;-56
2021/09/29 12:30:23;;;;;;;5.07;1.17;;;21.40;90.20;;;;;;5109397;28;20421;-57
2021/09/29 12:33:16;;;;;;;3.90;0.80;;;21.90;88.50;;;;;;5109216;28;20381;-57
2021/09/29 12:35:51;;;;;;;6.50;0.90;;;21.60;88.40;;;;;;5110628;28;20380;-56
2021/09/29 12:38:18;;;;;;;7.72;0.90;;;21.70;88.60;;;;;;5109492;28;20495;-57
2021/09/29 12:40:46;;;;;;;5.20;0.73;;;21.80;87.40;;;;;;5109583;28;20375;-57
2021/09/29 12:43:18;;;;;;;3.97;0.70;;;21.40;88.00;;;;;;5109293;28;20368;-56
2021/09/29 12:45:48;;;;;;;5.37;0.90;;;21.10;88.50;;;;;;5109809;28;20433;-56
2021/09/29 12:48:16;;;;;;;5.43;0.90;;;20.90;89.70;;;;;;5108956;28;20809;-56
2021/09/29 12:50:54;;;;;;;4.10;0.80;;;20.80;90.10;;;;;;5110241;28;20391;-56
2021/09/29 12:58:24;;;;;;;4.55;1.00;;;20.80;90.70;;;;;;5092961;28;20481;-55
2021/09/29 13:00:50;;;;;;;4.97;0.80;;;20.70;90.80;;;;;;5089797;28;20802;-55
2021/09/29 13:03:16;;;;;;;4.88;1.10;;;20.60;91.40;;;;;;5089108;28;20766;-54
2021/09/29 13:05:42;;;;;;;6.40;0.80;;;21.00;91.10;;;;;;5089148;28;20443;-55
2021/09/29 13:08:09;;;;;;;6.63;0.80;;;21.30;91.30;;;;;;5089580;28;20378;-55
2021/09/29 13:10:35;;;;;;;4.90;1.00;;;21.40;90.30;;;;;;5108774;28;20383;-56
2021/09/29 13:13:01;;;;;;;5.40;0.90;;;20.80;90.20;;;;;;5109759;28;20369;-56
2021/09/29 13:15:27;;;;;;;4.60;1.00;;;20.40;90.90;;;;;;5108811;28;20849;-55
2021/09/29 13:17:56;;;;;;;4.97;1.00;;;20.20;91.50;;;;;;5109180;28;20400;-54
2021/09/29 13:20:25;;;;;;;4.60;1.10;;;19.80;92.10;;;;;;5108653;28;20389;-56
2021/09/29 13:22:56;;;;;;;4.00;0.90;;;19.50;92.90;;;;;;5109349;28;20404;-56
2021/09/29 13:38:50;;;;;;;5.03;0.93;;;18.20;99.90;;;;;;5108925;28;20427;-56
2021/09/29 13:41:15;;;;;;;5.28;1.20;;;18.30;99.90;;;;;;5108412;28;20380;-56
2021/09/29 13:43:42;;;;;;;5.37;1.10;;;18.20;99.90;;;;;;5109263;28;20376;-56
2021/09/29 13:46:08;;;;;;;4.35;0.93;;;18.30;99.90;;;;;;5109153;28;20376;-56
2021/09/29 13:48:35;;;;;;;4.80;0.80;;;18.40;99.90;;;;;;5108717;28;20381;-56
2021/09/29 13:51:01;;;;;;;4.65;0.90;;;17.90;99.90;;;;;;5111027;28;20376;-57
2021/09/29 13:53:28;;;;;;;4.93;1.02;;;17.30;99.90;;;;;;5112427;28;20384;-54
2021/09/29 13:55:56;;;;;;;8.07;1.77;;;16.40;99.90;;;;;;5113199;28;20407;-55
2021/09/29 14:30:51;;;;;;;4.30;0.83;;;14.50;99.90;;;;;;5112289;28;20423;-54
2021/09/29 14:35:46;;;;;;;3.75;0.90;;;14.50;99.90;;;;;;5112562;28;20865;-55
2021/09/29 14:38:11;;;;;;;3.50;0.80;;;14.60;99.90;;;;;;5112272;28;20415;-56
2021/09/29 14:40:38;;;;;;;4.00;0.90;;;14.50;99.90;;;;;;5110689;28;20467;-55
2021/09/29 14:43:04;;;;;;;3.30;0.60;;;14.40;99.90;;;;;;5077659;28;20384;-55
2021/09/29 14:45:30;;;;;;;4.28;0.90;;;14.30;99.90;;;;;;5079897;28;20418;-55
2021/09/29 14:47:56;;;;;;;5.90;1.00;;;14.40;99.90;;;;;;5076447;28;20413;-55
2021/09/29 14:50:28;;;;;;;3.37;0.60;;;14.40;99.90;;;;;;5080040;28;20397;-54
2021/09/29 14:52:58;;;;;;;4.97;0.80;;;14.20;99.90;;;;;;5088798;28;20401;-54
2021/09/29 14:55:28;;;;;;;4.43;0.82;;;14.20;99.90;;;;;;5090817;28;20394;-54
2021/09/29 14:57:53;;;;;;;4.07;0.70;;;14.30;99.90;;;;;;5093897;28;20541;-55
2021/09/29 15:00:19;;;;;;;3.50;0.80;;;14.40;99.90;;;;;;5088633;28;20460;-54
2021/09/29 15:02:45;;;;;;;3.80;0.70;;;14.30;99.90;;;;;;5094004;28;20384;-54
2021/09/29 15:05:12;;;;;;;3.65;0.70;;;14.30;99.90;;;;;;5099809;28;20408;-57
2021/09/29 15:07:38;;;;;;;3.83;0.70;;;14.60;99.90;;;;;;5097104;28;20401;-56
2021/09/29 15:10:05;;;;;;;4.45;0.70;;;14.80;99.90;;;;;;5088725;28;20393;-56
2021/09/29 15:12:33;;;;;;;5.30;0.80;;;14.70;99.90;;;;;;5094508;28;20372;-54
2021/09/29 15:20:03;;;;;;;4.60;0.70;;;14.70;99.90;;;;;;5098166;28;20720;-53
2021/09/29 15:22:45;;;;;;;5.55;1.05;;;14.80;99.90;;;;;;5090070;28;20479;-53
2021/09/29 15:30:27;;;;;;;3.60;0.70;;;14.60;99.90;;;;;;5088459;28;20743;-60
2021/09/29 15:46:48;;;;;;;3.70;0.70;;;15.10;99.90;;;;;;5070687;28;20401;-54
2021/09/29 16:36:01;;;;;;;4.00;0.63;;;14.80;99.90;;;;;;5081354;28;20797;-54
2021/09/29 16:38:27;;;;;;;3.92;0.80;;;14.90;99.90;;;;;;5080260;28;20438;-55
2021/09/29 16:40:55;;;;;;;5.73;0.83;;;14.80;99.90;;;;;;5083446;28;20748;-52
2021/09/29 16:43:21;;;;;;;3.80;0.80;;;14.70;99.90;;;;;;5083733;28;20464;-56
2021/09/29 16:45:47;;;;;;;4.72;0.93;;;14.80;99.90;;;;;;5089079;28;20378;-52
2021/09/29 16:48:18;;;;;;;3.70;0.77;;;14.90;99.90;;;;;;5086037;28;20463;-59
2021/09/29 16:53:16;;;;;;;4.00;0.83;;;14.70;99.90;;;;;;5087995;28;20482;-55
2021/09/29 16:55:43;;;;;;;3.90;0.80;;;14.70;99.90;;;;;;5085126;28;20835;-54
2021/09/29 16:58:35;;;;;;;5.60;1.00;;;14.50;99.90;;;;;;5087184;28;20405;-54
2021/09/29 17:01:12;;;;;;;3.70;0.80;;;14.50;99.90;;;;;;5084410;28;20386;-55
2021/09/29 17:03:40;;;;;;;4.15;0.93;;;14.60;99.90;;;;;;5084121;28;20431;-55
2021/09/29 17:06:07;;;;;;;4.00;0.90;;;14.60;99.90;;;;;;5087173;28;20394;-55
2021/09/29 17:08:33;;;;;;;4.72;1.00;;;14.60;99.90;;;;;;5079619;28;20398;-54
2021/09/29 17:11:00;;;;;;;4.10;0.70;;;14.60;99.90;;;;;;5083499;28;20383;-55
2021/09/29 17:13:36;;;;;;;5.60;1.00;;;14.50;99.90;;;;;;5084688;28;20481;-55